Time;durP1;ratioP1;P1;durP2;ratioP2;P2;SDS_P1;SDS_P2;PMS_P1;PMS_P2;Temp;Humidity;BMP_temperature;BMP_pressure;BME280_temperature;BME280_humidity;BME280_pressure;Samples;Min_cycle;Max_cycle;Signal;HPM_P1;HPM_P2
2021/11/21 00:01:28;;;;;;;15.10;10.85;;;;;;;6.13;74.11;98890.66;2623792;54;20063;-69
2021/11/21 00:03:58;;;;;;;13.95;9.95;;;;;;;6.10;74.02;98885.72;2624418;39;20514;-68
2021/11/21 00:06:30;;;;;;;17.30;11.60;;;;;;;6.14;74.00;98892.28;2623223;54;20026;-69
2021/11/21 00:08:59;;;;;;;16.25;10.98;;;;;;;6.07;74.25;98891.28;2623220;54;20035;-69
2021/11/21 00:11:29;;;;;;;17.52;11.88;;;;;;;6.07;74.23;98886.03;2622868;54;20041;-69
2021/11/21 00:14:00;;;;;;;19.75;12.85;;;;;;;6.05;74.00;98889.81;2623614;39;20458;-71
2021/11/21 00:16:30;;;;;;;17.45;11.85;;;;;;;6.01;74.31;98886.69;2623798;54;20037;-70
2021/11/21 00:18:59;;;;;;;17.92;11.77;;;;;;;6.09;74.63;98884.06;2624646;31;20507;-68
2021/11/21 00:21:32;;;;;;;18.35;11.50;;;;;;;6.11;74.52;98883.91;2623595;54;20601;-69
2021/11/21 00:24:02;;;;;;;17.77;12.20;;;;;;;6.05;74.14;98882.75;2623625;54;20546;-68
2021/11/21 00:26:31;;;;;;;16.85;11.65;;;;;;;6.01;74.45;98875.38;2623289;54;20562;-69
2021/11/21 00:29:01;;;;;;;17.38;12.25;;;;;;;5.92;74.43;98880.59;2621981;47;20034;-69
2021/11/21 00:31:31;;;;;;;18.33;12.15;;;;;;;5.90;74.32;98879.91;2622735;54;20026;-69
2021/11/21 00:34:01;;;;;;;18.80;11.80;;;;;;;5.90;74.52;98879.91;2623705;54;20041;-70
2021/11/21 00:36:33;;;;;;;18.52;12.48;;;;;;;5.90;74.08;98877.28;2623541;54;20546;-69
2021/11/21 00:39:03;;;;;;;18.35;12.20;;;;;;;5.90;74.28;98879.09;2623791;54;20038;-68
2021/11/21 00:41:33;;;;;;;19.20;11.75;;;;;;;5.89;74.15;98880.06;2623955;54;20034;-69
2021/11/21 00:44:03;;;;;;;17.52;11.88;;;;;;;5.88;74.46;98870.56;2624103;54;20587;-68
2021/11/21 00:46:32;;;;;;;18.13;11.88;;;;;;;5.91;74.29;98867.59;2623173;54;20027;-70
2021/11/21 00:49:04;;;;;;;19.05;12.50;;;;;;;5.95;74.12;98859.28;2622961;47;20051;-71
2021/11/21 00:51:36;;;;;;;19.35;12.85;;;;;;;5.95;74.49;98858.44;2624202;39;20460;-70
2021/11/21 00:54:14;;;;;;;18.33;12.68;;;;;;;5.97;74.77;98866.19;2622833;47;20570;-69
2021/11/21 00:56:44;;;;;;;19.23;12.90;;;;;;;5.92;74.53;98861.41;2624250;54;20033;-68
2021/11/21 00:59:16;;;;;;;19.20;12.25;;;;;;;5.89;74.47;98867.78;2624573;54;20038;-68
2021/11/21 01:01:46;;;;;;;18.27;12.60;;;;;;;5.86;74.07;98859.41;2624152;54;20059;-68
2021/11/21 01:04:16;;;;;;;16.48;11.32;;;;;;;5.84;74.53;98858.75;2623777;54;20038;-69
2021/11/21 01:06:48;;;;;;;16.77;12.02;;;;;;;5.86;74.34;98852.34;2624230;54;20038;-68
2021/11/21 01:09:23;;;;;;;18.92;12.77;;;;;;;5.83;74.16;98852.66;2624131;54;20030;-68
2021/11/21 01:11:54;;;;;;;19.20;11.95;;;;;;;5.80;74.36;98849.56;2623284;54;20553;-68
2021/11/21 01:14:23;;;;;;;20.17;12.70;;;;;;;5.74;73.99;98837.88;2623310;51;20054;-69
2021/11/21 01:16:53;;;;;;;20.55;12.68;;;;;;;5.63;74.75;98844.28;2624171;54;20038;-69
2021/11/21 01:19:23;;;;;;;20.15;13.30;;;;;;;5.59;74.89;98842.94;2625338;54;20037;-69
2021/11/21 01:21:55;;;;;;;19.15;12.38;;;;;;;5.64;75.39;98843.28;2625655;54;20034;-73
2021/11/21 01:24:25;;;;;;;18.65;12.23;;;;;;;5.58;75.18;98841.28;2625483;54;20032;-70
2021/11/21 01:26:55;;;;;;;20.90;13.18;;;;;;;5.53;75.71;98834.88;2624935;54;20083;-69
2021/11/21 01:29:25;;;;;;;19.58;13.40;;;;;;;5.62;75.57;98826.88;2625017;54;20046;-69
2021/11/21 01:31:54;;;;;;;22.88;12.45;;;;;;;5.65;75.63;98823.13;2624747;54;20558;-69
2021/11/21 01:34:24;;;;;;;18.77;12.32;;;;;;;5.67;75.25;98819.38;2624472;54;20030;-70
2021/11/21 01:36:56;;;;;;;18.38;12.07;;;;;;;5.75;74.93;98813.28;2624836;54;20046;-69
2021/11/21 01:39:26;;;;;;;21.00;12.95;;;;;;;5.70;74.56;98819.03;2623805;54;20063;-68
2021/11/21 01:41:56;;;;;;;19.77;12.52;;;;;;;5.73;74.88;98802.16;2622688;54;20046;-69
2021/11/21 01:44:26;;;;;;;18.48;11.85;;;;;;;5.77;75.18;98800.84;2623598;54;20030;-70
2021/11/21 01:46:56;;;;;;;19.45;12.50;;;;;;;5.78;74.89;98794.63;2623886;54;20083;-70
2021/11/21 01:49:25;;;;;;;18.60;13.05;;;;;;;5.75;75.21;98786.25;2624467;39;20448;-70
2021/11/21 01:51:58;;;;;;;22.65;13.88;;;;;;;5.78;75.12;98789.38;2623186;54;20123;-70
2021/11/21 01:54:28;;;;;;;21.75;13.10;;;;;;;5.82;74.92;98780.19;2623628;54;20091;-70
2021/11/21 01:56:58;;;;;;;24.27;13.93;;;;;;;5.87;74.95;98780.50;2623135;54;20042;-70
2021/11/21 01:59:28;;;;;;;22.50;14.13;;;;;;;5.82;74.81;98776.75;2622715;51;20026;-69
2021/11/21 02:01:57;;;;;;;23.20;13.90;;;;;;;5.83;75.02;98781.00;2623295;54;20075;-70
2021/11/21 02:04:28;;;;;;;21.38;13.95;;;;;;;5.76;75.16;98770.38;2622276;47;20109;-68
2021/11/21 02:07:00;;;;;;;20.38;13.63;;;;;;;5.73;74.94;98765.44;2623825;54;20019;-69
2021/11/21 02:09:30;;;;;;;22.05;13.45;;;;;;;5.73;75.43;98765.44;2623346;54;20030;-68
2021/11/21 02:12:00;;;;;;;20.42;13.23;;;;;;;5.79;75.38;98772.63;2623662;54;20034;-69
2021/11/21 02:14:34;;;;;;;24.30;13.98;;;;;;;5.70;75.29;98771.00;2623545;54;20014;-68
2021/11/21 02:17:04;;;;;;;22.50;14.05;;;;;;;5.64;75.46;98763.78;2623807;54;20023;-69
2021/11/21 02:19:33;;;;;;;19.80;12.45;;;;;;;5.68;75.57;98762.47;2623650;54;20033;-68
2021/11/21 02:22:06;;;;;;;20.13;13.63;;;;;;;5.66;75.30;98760.00;2623568;54;20038;-69
2021/11/21 02:24:36;;;;;;;22.75;14.18;;;;;;;5.69;75.56;98761.50;2623340;54;20050;-68
2021/11/21 02:27:06;;;;;;;21.80;13.98;;;;;;;5.67;75.34;98758.19;2624533;39;20438;-69
2021/11/21 02:29:36;;;;;;;22.35;14.95;;;;;;;5.67;75.26;98751.19;2624293;39;20423;-68
2021/11/21 02:32:06;;;;;;;22.02;13.57;;;;;;;5.65;75.60;98739.19;2625117;54;20039;-68
2021/11/21 02:34:35;;;;;;;21.88;14.63;;;;;;;5.65;75.82;98734.78;2625091;54;20045;-68
2021/11/21 02:37:11;;;;;;;23.30;14.65;;;;;;;5.58;75.78;98732.94;2625113;54;20458;-68
2021/11/21 02:39:41;;;;;;;20.63;14.27;;;;;;;5.61;75.86;98730.00;2625508;54;20549;-68
2021/11/21 02:42:11;;;;;;;23.63;14.02;;;;;;;5.63;75.74;98728.88;2625371;54;20046;-68
2021/11/21 02:44:41;;;;;;;22.83;15.40;;;;;;;5.72;76.04;98716.59;2625278;54;20022;-68
2021/11/21 02:47:10;;;;;;;24.80;14.93;;;;;;;5.75;75.66;98718.03;2625154;54;20022;-68
2021/11/21 02:49:40;;;;;;;21.30;13.70;;;;;;;5.74;75.38;98716.41;2624890;47;20042;-69
2021/11/21 02:52:13;;;;;;;21.13;13.45;;;;;;;5.75;75.13;98712.78;2625739;54;20063;-68
2021/11/21 02:54:51;;;;;;;21.38;13.88;;;;;;;5.63;75.44;98713.16;2625615;54;20027;-68
2021/11/21 02:57:21;;;;;;;21.15;14.15;;;;;;;5.61;75.37;98703.78;2624608;47;20043;-68
2021/11/21 02:59:51;;;;;;;21.02;13.93;;;;;;;5.62;75.27;98698.38;2624746;54;20038;-69
2021/11/21 03:02:22;;;;;;;20.38;13.68;;;;;;;5.60;75.36;98695.09;2624583;54;20031;-69
2021/11/21 03:04:54;;;;;;;19.20;13.25;;;;;;;5.61;75.67;98694.13;2624598;54;20113;-69
2021/11/21 03:07:26;;;;;;;19.15;13.05;;;;;;;5.66;75.02;98681.31;2624048;54;20026;-69
2021/11/21 03:09:56;;;;;;;19.67;13.05;;;;;;;5.59;75.12;98682.97;2623764;47;20030;-69
2021/11/21 03:12:26;;;;;;;20.48;12.52;;;;;;;5.59;75.17;98679.53;2624902;39;20458;-68
2021/11/21 03:14:55;;;;;;;19.90;13.00;;;;;;;5.60;75.20;98673.31;2623493;54;20030;-69
2021/11/21 03:17:25;;;;;;;23.67;14.30;;;;;;;5.60;75.61;98673.31;2623559;39;20431;-69
2021/11/21 03:19:55;;;;;;;22.77;14.38;;;;;;;5.62;75.35;98677.38;2623170;54;20038;-69
2021/11/21 03:22:27;;;;;;;19.58;12.77;;;;;;;5.61;75.14;98677.56;2622813;47;20034;-69
2021/11/21 03:24:57;;;;;;;21.33;13.77;;;;;;;5.66;75.06;98677.88;2622233;54;20033;-69
2021/11/21 03:27:28;;;;;;;19.58;12.50;;;;;;;5.60;75.35;98666.25;2621572;54;20026;-69
2021/11/21 03:29:58;;;;;;;24.17;14.80;;;;;;;5.55;75.47;98672.97;2623854;54;20038;-69
2021/11/21 03:32:27;;;;;;;20.35;13.00;;;;;;;5.57;75.45;98665.75;2624355;54;20258;-69
2021/11/21 03:34:57;;;;;;;19.90;13.38;;;;;;;5.56;75.52;98672.00;2623887;54;20034;-69
2021/11/21 03:37:29;;;;;;;21.42;13.43;;;;;;;5.57;75.72;98671.00;2624911;39;20419;-69
2021/11/21 03:40:00;;;;;;;20.08;13.90;;;;;;;5.55;75.48;98668.56;2623885;54;20039;-69
2021/11/21 03:42:29;;;;;;;22.60;14.35;;;;;;;5.57;75.74;98671.81;2623716;47;20045;-69
2021/11/21 03:44:59;;;;;;;23.05;13.93;;;;;;;5.66;75.61;98664.78;2623180;54;20547;-68
2021/11/21 03:47:28;;;;;;;23.00;14.25;;;;;;;5.62;76.10;98663.47;2624051;54;20062;-69
2021/11/21 03:49:58;;;;;;;20.95;13.15;;;;;;;5.61;76.18;98656.59;2623954;54;20051;-69
2021/11/21 03:52:30;;;;;;;19.20;12.35;;;;;;;5.71;75.96;98670.34;2623638;54;20034;-69
2021/11/21 03:55:00;;;;;;;20.52;12.32;;;;;;;5.74;75.84;98664.78;2622960;54;20041;-69
2021/11/21 03:57:29;;;;;;;18.65;11.43;;;;;;;5.71;75.97;98655.44;2623962;54;20023;-70
2021/11/21 03:59:59;;;;;;;21.13;13.00;;;;;;;5.71;75.86;98655.44;2623474;47;20038;-69
2021/11/21 04:02:29;;;;;;;17.40;11.65;;;;;;;5.74;75.84;98642.97;2623472;54;20030;-69
2021/11/21 04:04:59;;;;;;;20.83;12.55;;;;;;;5.74;75.75;98640.34;2623419;54;20026;-71
2021/11/21 04:07:32;;;;;;;22.38;12.70;;;;;;;5.74;76.26;98642.97;2623291;47;20033;-69
2021/11/21 04:10:02;;;;;;;21.90;12.40;;;;;;;5.71;76.26;98636.25;2623449;39;20431;-69
2021/11/21 04:12:31;;;;;;;22.55;13.07;;;;;;;5.67;76.49;98641.03;2623851;54;20030;-69
2021/11/21 04:15:01;;;;;;;21.45;13.20;;;;;;;5.77;76.66;98638.22;2623661;54;20561;-69
2021/11/21 04:17:32;;;;;;;22.85;12.88;;;;;;;5.85;76.57;98640.00;2623973;54;20034;-69
2021/11/21 04:20:02;;;;;;;16.67;10.27;;;;;;;5.84;76.35;98636.56;2623247;47;20026;-69
2021/11/21 04:22:34;;;;;;;15.20;10.57;;;;;;;5.83;76.36;98629.66;2623994;39;20396;-69
2021/11/21 04:25:04;;;;;;;17.52;10.38;;;;;;;5.85;76.38;98627.72;2622779;54;20026;-69
2021/11/21 04:27:34;;;;;;;17.20;10.50;;;;;;;5.80;76.23;98624.78;2621440;54;20026;-69
2021/11/21 04:30:05;;;;;;;14.57;9.07;;;;;;;5.67;75.94;98620.03;2621020;54;20035;-69
2021/11/21 04:32:37;;;;;;;13.68;9.43;;;;;;;5.63;75.99;98626.59;2620308;54;20026;-69
2021/11/21 04:35:08;;;;;;;16.75;9.77;;;;;;;5.64;76.23;98632.66;2622975;47;20026;-67
2021/11/21 04:37:40;;;;;;;14.90;9.05;;;;;;;5.51;75.93;98637.56;2621919;54;20698;-68
2021/11/21 04:40:13;;;;;;;13.00;8.27;;;;;;;5.44;76.24;98637.41;2623860;54;20047;-69
2021/11/21 04:42:43;;;;;;;14.00;9.15;;;;;;;5.42;76.50;98631.50;2620889;54;20038;-69
2021/11/21 04:45:13;;;;;;;13.98;8.75;;;;;;;5.28;75.93;98632.97;2622456;54;20022;-67
2021/11/21 04:47:43;;;;;;;11.88;7.82;;;;;;;5.21;76.42;98630.19;2624384;54;20035;-67
2021/11/21 04:50:15;;;;;;;11.60;7.88;;;;;;;5.15;76.36;98630.03;2622595;54;20031;-68
2021/11/21 04:52:47;;;;;;;15.32;9.00;;;;;;;5.11;76.12;98623.47;2622071;54;20035;-67
2021/11/21 04:55:17;;;;;;;12.27;8.77;;;;;;;5.04;76.57;98635.56;2621889;54;20037;-68
2021/11/21 04:57:46;;;;;;;11.20;8.50;;;;;;;4.94;76.79;98631.31;2622215;54;20095;-67
2021/11/21 05:00:20;;;;;;;13.85;9.02;;;;;;;4.84;76.21;98630.63;2621734;54;20038;-67
2021/11/21 05:02:51;;;;;;;14.60;9.25;;;;;;;4.84;76.46;98619.31;2621223;54;20034;-69
2021/11/21 05:05:26;;;;;;;12.90;8.30;;;;;;;4.76;76.76;98619.31;2620872;54;20026;-69
2021/11/21 05:07:58;;;;;;;13.65;8.82;;;;;;;4.81;76.96;98615.22;2621340;54;20027;-67
2021/11/21 05:10:28;;;;;;;13.15;8.85;;;;;;;4.79;76.98;98617.19;2620823;54;20034;-69
2021/11/21 05:12:58;;;;;;;14.43;9.43;;;;;;;4.84;76.90;98622.75;2620272;54;20034;-71
2021/11/21 05:15:28;;;;;;;12.23;9.02;;;;;;;4.82;76.87;98622.13;2618825;54;20026;-70
2021/11/21 05:17:58;;;;;;;13.73;9.40;;;;;;;4.76;76.75;98629.78;2618910;54;20065;-70
2021/11/21 05:20:28;;;;;;;14.25;8.75;;;;;;;4.73;76.62;98628.28;2619537;54;20079;-68
2021/11/21 05:23:00;;;;;;;16.55;10.55;;;;;;;4.62;76.82;98632.03;2620378;54;20086;-67
2021/11/21 05:25:30;;;;;;;13.50;9.98;;;;;;;4.64;76.66;98637.09;2624259;54;20042;-68
2021/11/21 05:27:59;;;;;;;15.25;10.27;;;;;;;4.71;77.15;98625.84;2624193;54;20062;-68
2021/11/21 05:30:29;;;;;;;16.95;10.70;;;;;;;4.69;76.95;98629.59;2624034;54;20642;-67
2021/11/21 05:32:58;;;;;;;16.30;10.45;;;;;;;4.69;76.96;98624.34;2624404;54;20051;-69
2021/11/21 05:35:28;;;;;;;19.85;11.35;;;;;;;4.71;77.30;98627.63;2624481;54;20034;-67
2021/11/21 05:38:00;;;;;;;16.60;11.60;;;;;;;4.66;77.35;98630.75;2624275;54;20059;-67
2021/11/21 05:40:30;;;;;;;20.48;13.07;;;;;;;4.64;77.29;98626.63;2624585;54;20037;-67
2021/11/21 05:43:00;;;;;;;18.42;12.30;;;;;;;4.62;77.66;98634.66;2625350;54;20046;-67
2021/11/21 05:45:30;;;;;;;19.63;12.77;;;;;;;4.69;77.62;98624.34;2625040;54;20038;-68
2021/11/21 05:47:59;;;;;;;20.80;13.68;;;;;;;4.77;77.80;98634.84;2624697;54;20042;-68
2021/11/21 05:50:29;;;;;;;21.23;13.57;;;;;;;4.83;77.67;98626.38;2624702;54;20030;-69
2021/11/21 05:53:01;;;;;;;21.38;12.82;;;;;;;4.86;77.85;98631.28;2623559;54;20035;-68
2021/11/21 05:55:31;;;;;;;17.98;12.52;;;;;;;4.89;77.67;98628.31;2624185;54;20038;-69
2021/11/21 05:58:01;;;;;;;20.77;12.60;;;;;;;4.85;77.25;98619.16;2624345;54;20030;-68
2021/11/21 06:00:31;;;;;;;24.80;13.93;;;;;;;4.76;77.80;98614.88;2623598;54;20034;-69
2021/11/21 06:03:01;;;;;;;20.73;13.20;;;;;;;4.69;78.17;98614.72;2623545;54;20562;-70
2021/11/21 06:05:31;;;;;;;24.42;15.40;;;;;;;4.75;78.07;98615.06;2623595;54;20082;-68
2021/11/21 06:08:06;;;;;;;22.02;14.15;;;;;;;4.79;78.13;98619.81;2623492;54;20042;-69
2021/11/21 06:10:36;;;;;;;24.55;14.75;;;;;;;4.87;78.22;98625.06;2623320;54;20125;-68
2021/11/21 06:13:05;;;;;;;23.45;13.45;;;;;;;4.83;77.83;98621.13;2623537;54;20551;-68
2021/11/21 06:15:35;;;;;;;21.88;13.25;;;;;;;4.85;77.95;98628.81;2624630;54;20063;-68
2021/11/21 06:18:05;;;;;;;25.25;13.70;;;;;;;4.89;78.27;98622.28;2624666;54;20034;-68
2021/11/21 06:20:35;;;;;;;22.85;13.25;;;;;;;4.89;78.18;98619.66;2623719;54;20590;-69
2021/11/21 06:23:07;;;;;;;25.27;15.07;;;;;;;4.94;78.09;98620.81;2623632;47;20037;-69
2021/11/21 06:25:36;;;;;;;23.73;14.45;;;;;;;4.96;78.31;98613.63;2624467;54;20038;-69
2021/11/21 06:28:06;;;;;;;26.00;15.98;;;;;;;5.04;78.37;98606.75;2624273;47;20534;-69
2021/11/21 06:30:40;;;;;;;27.20;17.35;;;;;;;5.13;78.64;98595.28;2624784;54;20038;-69
2021/11/21 06:33:10;;;;;;;28.45;16.30;;;;;;;5.21;78.57;98596.13;2624578;54;20031;-69
2021/11/21 06:35:41;;;;;;;25.10;15.70;;;;;;;5.23;78.17;98601.22;2624197;54;20055;-69
2021/11/21 06:38:13;;;;;;;28.17;17.77;;;;;;;5.30;78.13;98596.13;2624516;54;20038;-69
2021/11/21 06:40:43;;;;;;;26.25;15.25;;;;;;;5.33;77.60;98595.78;2623874;54;20033;-70
2021/11/21 06:43:13;;;;;;;23.92;15.07;;;;;;;5.33;77.77;98596.59;2624237;54;20038;-70
2021/11/21 06:45:42;;;;;;;22.60;15.60;;;;;;;5.34;77.64;98597.44;2623297;54;20030;-67
2021/11/21 06:48:14;;;;;;;24.35;15.23;;;;;;;5.33;77.46;98598.41;2621878;54;20574;-68
2021/11/21 06:50:47;;;;;;;26.75;14.52;;;;;;;5.33;77.70;98596.59;2622431;54;20034;-68
2021/11/21 06:53:20;;;;;;;24.73;16.30;;;;;;;5.35;77.45;98591.22;2623435;54;20031;-69
2021/11/21 06:55:50;;;;;;;22.52;14.45;;;;;;;5.37;77.55;98581.38;2623146;54;20027;-69
2021/11/21 06:58:19;;;;;;;26.67;15.30;;;;;;;5.39;77.75;98584.66;2623631;39;20545;-69
2021/11/21 07:00:49;;;;;;;23.85;13.55;;;;;;;5.38;77.43;98586.44;2623807;39;20491;-69
2021/11/21 07:03:19;;;;;;;20.55;12.50;;;;;;;5.40;77.39;98594.16;2623230;54;20034;-69
2021/11/21 07:05:51;;;;;;;22.85;13.43;;;;;;;5.43;77.24;98594.66;2623260;39;20408;-69
2021/11/21 07:08:23;;;;;;;21.58;13.30;;;;;;;5.47;77.10;98587.28;2622588;54;20035;-69
2021/11/21 07:10:53;;;;;;;20.70;12.93;;;;;;;5.52;77.22;98586.78;2622354;54;20087;-69
2021/11/21 07:13:23;;;;;;;18.05;11.27;;;;;;;5.49;77.00;98590.53;2622393;54;20039;-68
2021/11/21 07:15:54;;;;;;;18.65;10.85;;;;;;;5.46;77.11;98583.81;2624230;39;20469;-68
2021/11/21 07:18:24;;;;;;;17.73;12.20;;;;;;;5.52;77.03;98586.78;2623293;47;20026;-69
2021/11/21 07:20:53;;;;;;;15.43;10.13;;;;;;;5.42;76.61;98595.63;2624079;54;20027;-68
2021/11/21 07:23:26;;;;;;;17.98;11.43;;;;;;;5.46;77.00;98596.09;2624492;54;20055;-69
2021/11/21 07:25:55;;;;;;;16.73;10.65;;;;;;;5.48;77.02;98591.53;2625373;39;20456;-68
2021/11/21 07:28:25;;;;;;;13.48;9.32;;;;;;;5.52;76.85;98590.22;2623665;54;20038;-69
2021/11/21 07:30:54;;;;;;;13.88;9.07;;;;;;;5.58;76.57;98591.34;2623996;54;20034;-68
2021/11/21 07:33:28;;;;;;;14.95;9.48;;;;;;;5.57;76.56;98584.47;2623375;54;20060;-71
2021/11/21 07:35:58;;;;;;;12.10;8.20;;;;;;;5.59;76.67;98588.59;2620915;54;20041;-68
2021/11/21 07:38:30;;;;;;;13.68;8.63;;;;;;;5.61;76.21;98585.78;2621380;54;20039;-69
2021/11/21 07:41:00;;;;;;;13.23;9.18;;;;;;;5.62;76.24;98587.41;2621305;54;20035;-68
2021/11/21 07:43:30;;;;;;;11.48;7.50;;;;;;;5.67;76.43;98593.81;2622865;47;20027;-70
2021/11/21 07:46:01;;;;;;;13.27;8.32;;;;;;;5.67;76.36;98588.56;2624026;54;20045;-68
2021/11/21 07:48:32;;;;;;;12.13;8.38;;;;;;;5.78;76.25;98582.13;2623736;54;20038;-69
2021/11/21 07:51:03;;;;;;;10.50;7.35;;;;;;;5.84;76.14;98591.16;2621955;54;20034;-69
2021/11/21 07:53:35;;;;;;;12.43;7.47;;;;;;;5.81;75.89;98592.31;2622860;54;20577;-70
2021/11/21 07:56:06;;;;;;;8.33;5.80;;;;;;;5.79;75.68;98585.56;2623000;39;20431;-70
2021/11/21 07:58:36;;;;;;;11.40;6.53;;;;;;;5.83;75.85;98577.19;2622913;54;20120;-69
2021/11/21 08:01:06;;;;;;;7.80;5.88;;;;;;;5.85;76.01;98585.75;2622848;39;20195;-68
2021/11/21 08:03:36;;;;;;;7.85;6.07;;;;;;;5.85;75.70;98585.75;2622616;54;20138;-70
2021/11/21 08:06:08;;;;;;;9.65;6.97;;;;;;;5.89;75.71;98583.59;2622422;46;20034;-69
2021/11/21 08:08:45;;;;;;;11.13;5.72;;;;;;;5.92;75.47;98578.06;2621565;54;20030;-69
2021/11/21 08:11:18;;;;;;;8.50;5.88;;;;;;;5.96;75.79;98568.88;2620882;47;20113;-70
2021/11/21 08:13:48;;;;;;;9.82;6.38;;;;;;;5.99;75.43;98571.13;2622522;54;20046;-70
2021/11/21 08:16:18;;;;;;;8.77;5.80;;;;;;;6.02;75.71;98577.84;2620761;54;20861;-69
2021/11/21 08:18:48;;;;;;;9.50;6.72;;;;;;;6.09;75.67;98576.19;2620151;54;20022;-68
2021/11/21 08:21:18;;;;;;;9.77;6.22;;;;;;;6.13;76.10;98575.69;2622194;54;20034;-68
2021/11/21 08:23:50;;;;;;;9.95;6.85;;;;;;;6.20;75.80;98581.06;2622676;54;20054;-70
2021/11/21 08:26:20;;;;;;;8.30;6.20;;;;;;;6.26;75.32;98574.31;2622415;47;20151;-67
2021/11/21 08:28:49;;;;;;;9.75;6.55;;;;;;;6.34;75.44;98574.28;2622851;54;20030;-69
2021/11/21 08:31:19;;;;;;;7.97;6.18;;;;;;;6.43;75.15;98568.81;2622484;54;20034;-70
2021/11/21 08:33:52;;;;;;;7.30;5.00;;;;;;;6.49;74.65;98571.75;2622075;54;20042;-70
2021/11/21 08:36:23;;;;;;;7.88;5.20;;;;;;;6.49;74.59;98564.72;2620639;54;20030;-69
2021/11/21 08:38:55;;;;;;;6.47;4.97;;;;;;;6.51;74.44;98564.53;2621200;47;20035;-69
2021/11/21 08:41:25;;;;;;;9.00;6.00;;;;;;;6.49;74.07;98563.88;2621164;54;20609;-69
2021/11/21 08:43:58;;;;;;;8.40;4.80;;;;;;;6.41;74.29;98555.06;2624431;39;20462;-68
2021/11/21 08:46:28;;;;;;;8.15;5.38;;;;;;;6.38;74.32;98552.78;2623419;47;20034;-67
2021/11/21 08:49:02;;;;;;;7.32;5.50;;;;;;;6.37;74.43;98551.16;2623070;54;20035;-68
2021/11/21 08:51:32;;;;;;;8.02;5.47;;;;;;;6.41;74.47;98552.44;2623678;54;20042;-69
2021/11/21 08:54:04;;;;;;;8.90;6.00;;;;;;;6.48;74.64;98556.97;2625533;39;20490;-69
2021/11/21 08:56:34;;;;;;;8.10;5.95;;;;;;;6.47;74.10;98556.16;2622989;47;20138;-68
2021/11/21 08:59:05;;;;;;;7.07;5.35;;;;;;;6.45;74.54;98551.09;2622399;54;20557;-69
2021/11/21 09:01:36;;;;;;;9.43;5.68;;;;;;;6.39;74.34;98551.78;2622590;51;20031;-70
2021/11/21 09:04:06;;;;;;;9.07;6.05;;;;;;;6.48;74.68;98549.91;2623084;47;20091;-68
2021/11/21 09:06:39;;;;;;;11.55;8.52;;;;;;;6.57;74.89;98545.44;2623349;47;20034;-67
2021/11/21 09:09:11;;;;;;;9.02;5.80;;;;;;;6.48;74.64;98554.34;2623615;47;20046;-67
